createdAt,value
2019-02-07T00:01:54.839Z,14.13
2019-02-07T00:04:27.494Z,14.00
2019-02-07T00:07:00.195Z,14.17
2019-02-07T00:09:33.249Z,13.57
2019-02-07T00:12:05.898Z,13.87
2019-02-07T00:14:39.986Z,13.27
2019-02-07T00:17:12.771Z,13.40
2019-02-07T00:19:45.411Z,13.10
2019-02-07T00:22:18.049Z,13.73
2019-02-07T00:24:50.694Z,13.10
2019-02-07T00:27:23.358Z,13.77
2019-02-07T00:29:56.071Z,12.13
2019-02-07T00:32:29.110Z,12.67
2019-02-07T00:35:01.750Z,12.07
2019-02-07T00:37:34.406Z,13.13
2019-02-07T00:40:10.253Z,12.90
2019-02-07T00:42:42.929Z,12.47
2019-02-07T00:45:15.575Z,12.73
2019-02-07T00:47:48.223Z,12.60
2019-02-07T00:50:20.842Z,12.70
2019-02-07T00:52:53.480Z,12.47
2019-02-07T00:55:26.486Z,12.73
2019-02-07T00:57:59.116Z,13.47
2019-02-07T01:00:31.734Z,12.93
2019-02-07T01:03:04.367Z,13.13
2019-02-07T01:05:36.993Z,14.53
2019-02-07T01:08:09.642Z,14.80
2019-02-07T01:10:42.258Z,14.87
2019-02-07T01:13:14.885Z,14.17
2019-02-07T01:15:47.533Z,15.07
2019-02-07T01:18:20.295Z,15.93
2019-02-07T01:20:52.923Z,15.53
2019-02-07T01:23:25.554Z,15.63
2019-02-07T01:25:58.185Z,15.93
2019-02-07T01:28:30.825Z,16.33
2019-02-07T01:31:03.863Z,15.70
2019-02-07T01:33:36.494Z,15.07
2019-02-07T01:36:09.108Z,15.03
2019-02-07T01:38:41.778Z,15.90
2019-02-07T01:41:14.447Z,14.80
2019-02-07T01:43:47.077Z,14.73
2019-02-07T01:46:19.702Z,15.63
2019-02-07T01:48:52.334Z,15.73
2019-02-07T01:51:24.949Z,17.70
2019-02-07T01:53:57.594Z,17.00
2019-02-07T01:56:30.222Z,16.23
2019-02-07T01:59:02.850Z,16.30
2019-02-07T02:01:35.470Z,16.57
2019-02-07T02:04:08.097Z,16.03
2019-02-07T02:06:41.094Z,17.90
2019-02-07T02:09:13.749Z,16.53
2019-02-07T02:11:46.357Z,17.00
2019-02-07T02:14:18.989Z,17.20
2019-02-07T02:16:51.616Z,17.90
2019-02-07T02:19:24.240Z,17.77
2019-02-07T02:21:56.868Z,18.07
2019-02-07T02:24:29.489Z,18.33
2019-02-07T02:27:02.122Z,18.30
2019-02-07T02:29:34.765Z,17.60
2019-02-07T02:32:07.463Z,18.77
2019-02-07T02:34:40.116Z,18.53
2019-02-07T02:37:12.795Z,18.47
2019-02-07T02:39:45.458Z,18.00
2019-02-07T02:42:18.458Z,18.73
2019-02-07T02:44:51.085Z,19.80
2019-02-07T02:47:23.710Z,17.97
2019-02-07T02:49:56.343Z,18.97
2019-02-07T02:52:28.965Z,20.73
2019-02-07T02:55:01.805Z,19.57
2019-02-07T02:57:34.426Z,19.87
2019-02-07T03:00:09.009Z,19.00
2019-02-07T03:02:41.630Z,19.23
2019-02-07T03:05:14.642Z,18.03
2019-02-07T03:07:47.308Z,19.53
2019-02-07T03:10:19.937Z,19.60
2019-02-07T03:12:52.557Z,17.80
2019-02-07T03:15:25.206Z,19.07
2019-02-07T03:17:57.826Z,18.60
2019-02-07T03:20:30.454Z,17.47
2019-02-07T03:23:03.150Z,18.63
2019-02-07T03:25:35.773Z,18.83
2019-02-07T03:28:08.397Z,18.23
2019-02-07T03:30:41.044Z,18.93
2019-02-07T03:33:13.697Z,17.97
2019-02-07T03:35:46.340Z,18.20
2019-02-07T03:38:18.954Z,17.20
2019-02-07T03:40:52.065Z,17.53
2019-02-07T03:43:24.684Z,18.07
2019-02-07T03:46:02.752Z,17.43
2019-02-07T03:48:31.676Z,18.03
2019-02-07T03:51:04.867Z,17.20
2019-02-07T03:53:37.468Z,16.93
2019-02-07T03:56:10.513Z,16.60
2019-02-07T03:58:43.310Z,15.80
2019-02-07T04:01:15.941Z,17.60
2019-02-07T04:03:49.046Z,17.20
2019-02-07T04:06:21.797Z,17.30
2019-02-07T04:08:54.431Z,17.43
2019-02-07T04:11:27.109Z,16.80
2019-02-07T04:13:59.782Z,17.07
2019-02-07T04:16:32.429Z,17.67
2019-02-07T04:19:05.044Z,15.73
2019-02-07T04:21:37.686Z,17.23
2019-02-07T04:24:10.332Z,16.27
2019-02-07T04:26:43.229Z,17.03
2019-02-07T04:29:15.851Z,17.57
2019-02-07T04:31:48.508Z,17.83
2019-02-07T04:34:21.161Z,16.87
2019-02-07T04:36:53.965Z,16.53
2019-02-07T04:39:26.734Z,16.93
2019-02-07T04:41:59.398Z,15.47
2019-02-07T04:44:32.010Z,16.17
2019-02-07T04:47:04.642Z,15.27
2019-02-07T04:49:37.275Z,15.67
2019-02-07T04:52:09.971Z,16.87
2019-02-07T04:54:42.594Z,16.17
2019-02-07T04:57:15.242Z,15.30
2019-02-07T04:59:47.945Z,16.43
2019-02-07T05:02:20.862Z,16.00
2019-02-07T05:04:53.474Z,15.83
2019-02-07T05:07:26.106Z,15.13
2019-02-07T05:09:58.726Z,15.83
2019-02-07T05:12:31.357Z,15.30
2019-02-07T05:15:05.186Z,15.77
2019-02-07T05:17:37.836Z,15.57
2019-02-07T05:20:10.471Z,14.47
2019-02-07T05:22:43.297Z,14.40
2019-02-07T05:25:16.307Z,14.67
2019-02-07T05:27:48.965Z,13.50
2019-02-07T05:30:21.617Z,14.10
2019-02-07T05:32:54.250Z,14.07
2019-02-07T05:35:26.900Z,13.87
2019-02-07T05:37:59.851Z,13.80
2019-02-07T05:40:32.537Z,13.50
2019-02-07T05:43:05.168Z,13.03
2019-02-07T05:45:37.785Z,13.50
2019-02-07T05:48:10.473Z,12.53
2019-02-07T05:50:43.100Z,13.10
2019-02-07T05:53:15.769Z,12.73
2019-02-07T05:55:48.442Z,13.23
2019-02-07T05:58:21.082Z,13.17
2019-02-07T06:00:54.081Z,12.73
2019-02-07T06:03:26.717Z,12.10
2019-02-07T06:05:59.345Z,12.70
2019-02-07T06:08:32.039Z,12.40
2019-02-07T06:11:04.666Z,12.40
2019-02-07T06:13:37.672Z,12.93
2019-02-07T06:16:10.349Z,13.40
2019-02-07T06:18:42.994Z,12.57
2019-02-07T06:21:15.626Z,12.80
2019-02-07T06:23:48.257Z,12.67
2019-02-07T06:26:20.881Z,12.97
2019-02-07T06:28:53.510Z,13.07
2019-02-07T06:31:26.186Z,12.33
2019-02-07T06:33:58.814Z,12.40
2019-02-07T06:36:31.848Z,11.93
2019-02-07T06:39:08.742Z,12.13
2019-02-07T06:41:41.466Z,11.37
2019-02-07T06:44:14.146Z,11.77
2019-02-07T06:46:46.777Z,11.70
2019-02-07T06:49:19.438Z,12.17
2019-02-07T06:51:52.197Z,11.77
2019-02-07T06:54:24.835Z,11.10
2019-02-07T06:56:57.489Z,11.57
2019-02-07T06:59:30.626Z,11.90
2019-02-07T07:02:03.261Z,12.70
2019-02-07T07:04:35.974Z,11.70
2019-02-07T07:07:08.639Z,11.97
2019-02-07T07:09:41.335Z,12.40
2019-02-07T07:12:14.081Z,12.33
2019-02-07T07:14:46.833Z,11.63
2019-02-07T07:17:25.383Z,12.43
2019-02-07T07:19:53.837Z,12.07
2019-02-07T07:22:26.481Z,13.27
2019-02-07T07:24:59.174Z,13.17
2019-02-07T07:27:31.806Z,12.30
2019-02-07T07:30:06.974Z,13.73
2019-02-07T07:32:40.011Z,14.20
2019-02-07T07:35:12.661Z,13.57
2019-02-07T07:37:45.279Z,13.87
2019-02-07T07:40:17.909Z,15.17
2019-02-07T07:42:50.552Z,14.23
2019-02-07T07:45:23.206Z,14.37
2019-02-07T07:47:55.857Z,13.97
2019-02-07T07:50:28.511Z,14.87
2019-02-07T07:53:01.294Z,13.57
2019-02-07T07:55:34.565Z,13.10
2019-02-07T07:58:07.280Z,14.13
2019-02-07T08:00:39.914Z,13.43
2019-02-07T08:03:12.583Z,12.50
2019-02-07T08:05:45.225Z,13.23
2019-02-07T08:08:18.147Z,12.33
2019-02-07T08:10:50.842Z,13.47
2019-02-07T08:13:23.473Z,12.83
2019-02-07T08:15:56.224Z,12.77
2019-02-07T08:18:28.858Z,12.30
2019-02-07T08:21:01.499Z,11.93
2019-02-07T08:23:34.142Z,10.93
2019-02-07T08:26:06.767Z,10.30
2019-02-07T08:28:39.516Z,10.80
2019-02-07T08:31:12.438Z,10.07
2019-02-07T08:33:45.072Z,10.27
2019-02-07T08:36:17.751Z,10.47
2019-02-07T08:38:50.400Z,10.60
2019-02-07T08:41:23.039Z,10.57
2019-02-07T08:43:55.679Z,10.77
2019-02-07T08:46:28.317Z,9.67
2019-02-07T08:49:01.178Z,9.03
2019-02-07T08:51:34.129Z,8.53
2019-02-07T08:54:07.134Z,7.50
2019-02-07T08:56:39.788Z,7.50
2019-02-07T08:59:12.457Z,7.60
2019-02-07T09:01:45.110Z,7.93
2019-02-07T09:04:17.762Z,7.90
2019-02-07T09:06:50.414Z,7.03
2019-02-07T09:09:23.063Z,6.77
2019-02-07T09:11:56.061Z,5.00
2019-02-07T09:14:28.678Z,4.27
2019-02-07T09:17:01.306Z,3.87
2019-02-07T09:19:33.953Z,3.20
2019-02-07T09:22:06.634Z,3.40
2019-02-07T09:24:39.274Z,3.43
2019-02-07T09:27:11.919Z,3.30
2019-02-07T09:29:44.538Z,2.97
2019-02-07T09:32:17.262Z,3.13
2019-02-07T09:34:49.943Z,3.83
2019-02-07T09:37:22.588Z,3.20
2019-02-07T09:39:55.282Z,3.10
2019-02-07T09:42:27.930Z,3.17
2019-02-07T09:45:00.554Z,3.10
2019-02-07T09:47:33.195Z,2.73
2019-02-07T09:50:06.260Z,2.60
2019-02-07T09:52:39.273Z,3.30
2019-02-07T09:55:11.913Z,3.27
2019-02-07T09:57:44.582Z,3.13
2019-02-07T10:00:17.198Z,4.10
2019-02-07T10:02:49.830Z,3.97
2019-02-07T10:05:22.462Z,3.03
2019-02-07T10:07:55.093Z,3.57
2019-02-07T10:10:27.770Z,3.63
2019-02-07T10:13:00.428Z,3.70
2019-02-07T10:15:33.036Z,3.93
2019-02-07T10:18:05.737Z,3.77
2019-02-07T10:20:38.389Z,4.90
2019-02-07T10:23:11.025Z,3.70
2019-02-07T10:25:43.733Z,4.23
2019-02-07T10:28:16.757Z,4.17
2019-02-07T10:30:49.396Z,5.63
2019-02-07T10:33:22.029Z,4.63
2019-02-07T10:35:54.733Z,4.80
2019-02-07T10:38:27.383Z,4.60
2019-02-07T10:41:00.025Z,4.10
2019-02-07T10:43:32.677Z,4.67
2019-02-07T10:46:05.378Z,4.73
2019-02-07T10:48:44.510Z,4.40
2019-02-07T10:51:12.382Z,3.60
2019-02-07T10:53:45.086Z,4.13
2019-02-07T10:56:17.710Z,3.10
2019-02-07T10:58:50.346Z,3.20
2019-02-07T11:01:23.056Z,3.93
2019-02-07T11:03:55.697Z,3.60
2019-02-07T11:06:28.319Z,3.60
2019-02-07T11:09:00.989Z,3.87
2019-02-07T11:11:33.608Z,3.87
2019-02-07T11:14:06.733Z,4.43
2019-02-07T11:16:39.343Z,3.93
2019-02-07T11:19:21.108Z,4.20
2019-02-07T11:21:46.385Z,4.00
2019-02-07T11:24:19.046Z,4.13
2019-02-07T11:26:51.669Z,5.00
2019-02-07T11:29:24.311Z,4.40
2019-02-07T11:31:56.974Z,4.40
2019-02-07T11:34:29.650Z,4.37
2019-02-07T11:37:02.677Z,4.90
2019-02-07T11:39:35.322Z,4.00
2019-02-07T11:42:08.000Z,4.60
2019-02-07T11:44:41.007Z,4.53
2019-02-07T11:47:13.638Z,4.47
2019-02-07T11:49:46.283Z,4.97
2019-02-07T11:52:18.928Z,4.07
2019-02-07T11:54:51.557Z,4.30
2019-02-07T11:57:24.208Z,4.17
2019-02-07T11:59:57.742Z,3.97
2019-02-07T12:02:30.374Z,3.90
2019-02-07T12:05:03.030Z,4.60
2019-02-07T12:07:35.656Z,4.20
2019-02-07T12:10:11.194Z,3.57
2019-02-07T12:12:43.832Z,4.77
2019-02-07T12:15:16.483Z,3.93
2019-02-07T12:17:49.181Z,4.10
2019-02-07T12:20:23.016Z,4.33
2019-02-07T12:22:56.946Z,4.57
2019-02-07T12:25:30.550Z,5.17
2019-02-07T12:28:04.083Z,4.70
2019-02-07T12:30:37.693Z,4.70
2019-02-07T12:33:11.208Z,5.20
2019-02-07T12:35:44.341Z,5.57
2019-02-07T12:38:17.911Z,5.93
2019-02-07T12:40:51.497Z,4.13
2019-02-07T12:43:25.412Z,4.37
2019-02-07T12:45:59.106Z,4.70
2019-02-07T12:48:32.739Z,4.63
2019-02-07T12:51:06.921Z,4.73
2019-02-07T12:53:40.457Z,4.53
2019-02-07T12:56:14.217Z,4.87
2019-02-07T12:58:46.875Z,5.00
2019-02-07T13:01:19.617Z,5.93
2019-02-07T13:03:52.247Z,5.03
2019-02-07T13:06:24.880Z,4.63
2019-02-07T13:08:57.654Z,3.37
2019-02-07T13:11:30.293Z,3.77
2019-02-07T13:14:02.974Z,5.30
2019-02-07T13:16:35.765Z,5.73
2019-02-07T13:19:08.598Z,5.03
2019-02-07T13:21:41.400Z,3.40
2019-02-07T13:24:14.926Z,4.57
2019-02-07T13:26:49.625Z,3.80
2019-02-07T13:29:22.658Z,4.90
2019-02-07T13:31:55.324Z,4.67
2019-02-07T13:34:27.925Z,4.27
2019-02-07T13:37:00.658Z,6.10
2019-02-07T13:39:33.361Z,3.83
2019-02-07T13:42:06.259Z,5.70
2019-02-07T13:44:38.895Z,4.07
2019-02-07T13:47:20.301Z,3.93
2019-02-07T13:49:52.977Z,3.77
2019-02-07T13:52:25.609Z,3.43
2019-02-07T13:54:58.234Z,3.30
2019-02-07T13:57:30.898Z,3.47
2019-02-07T14:00:05.950Z,3.70
2019-02-07T14:02:38.860Z,3.67
2019-02-07T14:05:11.578Z,4.13
2019-02-07T14:07:44.680Z,3.60
2019-02-07T14:10:17.330Z,2.80
2019-02-07T14:12:49.958Z,3.23
2019-02-07T14:15:24.749Z,3.70
2019-02-07T14:17:57.499Z,4.13
2019-02-07T14:20:30.120Z,4.80
2019-02-07T14:23:02.837Z,3.80
2019-02-07T14:25:35.868Z,3.90
2019-02-07T14:28:08.543Z,4.43
2019-02-07T14:30:41.175Z,3.93
2019-02-07T14:33:13.853Z,2.97
2019-02-07T14:35:46.542Z,3.27
2019-02-07T14:38:19.208Z,3.20
2019-02-07T14:40:51.937Z,3.23
2019-02-07T14:43:24.574Z,3.30
2019-02-07T14:45:57.209Z,3.10
2019-02-07T14:48:30.217Z,3.53
2019-02-07T14:51:02.902Z,3.40
2019-02-07T14:53:35.585Z,3.00
2019-02-07T14:56:08.217Z,2.53
2019-02-07T14:58:42.567Z,3.63
2019-02-07T15:01:15.374Z,3.53
2019-02-07T15:03:48.054Z,3.57
2019-02-07T15:06:20.699Z,3.60
2019-02-07T15:08:53.330Z,4.40
2019-02-07T15:11:25.953Z,3.60
2019-02-07T15:13:58.622Z,3.30
2019-02-07T15:16:31.246Z,2.83
2019-02-07T15:19:03.912Z,3.03
2019-02-07T15:21:36.563Z,3.07
2019-02-07T15:24:09.605Z,3.07
2019-02-07T15:26:42.235Z,3.07
2019-02-07T15:29:16.094Z,3.87
2019-02-07T15:31:48.995Z,3.00
2019-02-07T15:34:21.622Z,2.80
2019-02-07T15:36:54.821Z,3.53
2019-02-07T15:39:27.449Z,3.67
2019-02-07T15:42:00.120Z,2.87
2019-02-07T15:44:32.762Z,4.20
2019-02-07T15:47:05.388Z,3.27
2019-02-07T15:49:38.053Z,2.83
2019-02-07T15:52:10.711Z,3.17
2019-02-07T15:54:43.449Z,3.10
2019-02-07T15:57:16.105Z,4.10
2019-02-07T15:59:48.749Z,5.50
2019-02-07T16:02:21.374Z,4.43
2019-02-07T16:04:54.006Z,5.37
2019-02-07T16:07:26.646Z,4.70
2019-02-07T16:09:59.346Z,5.07
2019-02-07T16:12:32.261Z,4.17
2019-02-07T16:15:05.661Z,4.10
2019-02-07T16:17:38.304Z,4.30
2019-02-07T16:20:13.651Z,4.37
2019-02-07T16:22:46.573Z,4.17
2019-02-07T16:25:19.211Z,4.10
2019-02-07T16:27:51.855Z,5.13
2019-02-07T16:30:24.549Z,4.43
2019-02-07T16:32:57.246Z,4.07
2019-02-07T16:35:30.090Z,4.23
2019-02-07T16:38:02.730Z,3.63
2019-02-07T16:40:35.380Z,3.87
2019-02-07T16:43:08.053Z,3.30
2019-02-07T16:45:40.682Z,3.30
2019-02-07T16:48:13.328Z,3.60
2019-02-07T16:50:46.058Z,3.50
2019-02-07T16:53:18.716Z,3.67
2019-02-07T16:55:51.361Z,3.47
2019-02-07T16:58:24.477Z,3.07
2019-02-07T17:00:57.113Z,3.37
2019-02-07T17:03:29.749Z,4.40
2019-02-07T17:06:02.403Z,3.67
2019-02-07T17:08:35.063Z,3.90
2019-02-07T17:11:07.901Z,4.40
2019-02-07T17:13:40.533Z,5.00
2019-02-07T17:16:13.161Z,4.33
2019-02-07T17:18:45.902Z,3.03
2019-02-07T17:21:18.707Z,3.60
2019-02-07T17:23:51.371Z,4.10
2019-02-07T17:26:24.046Z,3.73
2019-02-07T17:28:56.688Z,3.97
2019-02-07T17:31:29.341Z,4.00
2019-02-07T17:34:02.390Z,4.33
2019-02-07T17:36:35.034Z,3.90
2019-02-07T17:39:07.695Z,4.63
2019-02-07T17:41:40.317Z,3.67
2019-02-07T17:44:12.946Z,3.07
2019-02-07T17:46:45.672Z,3.87
2019-02-07T17:49:18.289Z,3.33
2019-02-07T17:51:50.976Z,3.30
2019-02-07T17:54:23.638Z,3.90
2019-02-07T17:56:56.286Z,3.60
2019-02-07T17:59:28.928Z,3.83
2019-02-07T18:02:01.590Z,4.07
2019-02-07T18:04:34.205Z,3.53
2019-02-07T18:07:06.865Z,3.50
2019-02-07T18:09:39.561Z,4.77
2019-02-07T18:12:12.206Z,5.80
2019-02-07T18:14:44.846Z,7.23
2019-02-07T18:17:17.496Z,3.90
2019-02-07T18:19:50.210Z,6.27
2019-02-07T18:22:23.318Z,4.77
2019-02-07T18:24:55.945Z,4.00
2019-02-07T18:27:28.717Z,3.93
2019-02-07T18:30:01.550Z,4.27
2019-02-07T18:32:34.206Z,5.87
2019-02-07T18:35:07.409Z,5.83
2019-02-07T18:37:40.111Z,4.33
2019-02-07T18:40:15.678Z,3.87
2019-02-07T18:42:48.314Z,4.53
2019-02-07T18:45:21.285Z,6.23
2019-02-07T18:47:53.960Z,5.00
2019-02-07T18:50:29.056Z,4.23
2019-02-07T18:53:01.794Z,5.17
2019-02-07T18:55:34.434Z,4.60
2019-02-07T18:58:07.942Z,4.27
2019-02-07T19:00:40.572Z,6.93
2019-02-07T19:03:13.274Z,5.07
2019-02-07T19:05:45.901Z,4.17
2019-02-07T19:08:18.537Z,3.57
2019-02-07T19:10:51.158Z,3.43
2019-02-07T19:13:23.808Z,4.23
2019-02-07T19:16:03.455Z,2.37
2019-02-07T19:18:36.185Z,2.83
2019-02-07T19:21:09.203Z,3.03
2019-02-07T19:23:41.842Z,2.73
2019-02-07T19:26:14.894Z,4.30
2019-02-07T19:28:47.528Z,3.27
2019-02-07T19:31:20.287Z,2.27
2019-02-07T19:33:53.017Z,2.50
2019-02-07T19:36:25.643Z,2.60
2019-02-07T19:38:58.301Z,2.57
2019-02-07T19:41:30.983Z,2.30
2019-02-07T19:44:03.933Z,2.70
2019-02-07T19:46:36.581Z,2.67
2019-02-07T19:49:09.254Z,2.37
2019-02-07T19:51:41.862Z,2.60
2019-02-07T19:54:14.502Z,2.20
2019-02-07T19:56:47.527Z,2.20
2019-02-07T19:59:20.158Z,2.30
2019-02-07T20:01:52.790Z,2.03
2019-02-07T20:04:25.420Z,2.30
2019-02-07T20:06:58.052Z,2.40
2019-02-07T20:09:31.174Z,2.37
2019-02-07T20:12:03.907Z,2.67
2019-02-07T20:14:36.543Z,2.63
2019-02-07T20:17:09.269Z,2.80
2019-02-07T20:19:41.919Z,2.80
2019-02-07T20:22:20.231Z,2.90
2019-02-07T20:24:49.281Z,2.73
2019-02-07T20:27:21.917Z,3.13
2019-02-07T20:29:54.591Z,3.17
2019-02-07T20:32:27.218Z,2.83
2019-02-07T20:35:00.338Z,2.90
2019-02-07T20:37:32.987Z,3.60
2019-02-07T20:40:05.641Z,4.60
2019-02-07T20:42:38.268Z,5.33
2019-02-07T20:45:11.274Z,3.70
2019-02-07T20:47:44.282Z,3.83
2019-02-07T20:50:18.799Z,4.10
2019-02-07T20:52:51.770Z,3.80
2019-02-07T20:55:24.399Z,3.60
2019-02-07T20:57:57.207Z,3.20
2019-02-07T21:00:34.354Z,3.00
2019-02-07T21:03:07.065Z,3.50
2019-02-07T21:05:39.720Z,2.90
2019-02-07T21:08:12.350Z,3.20
2019-02-07T21:10:45.087Z,3.70
2019-02-07T21:13:17.755Z,3.27
2019-02-07T21:15:50.447Z,3.63
2019-02-07T21:18:23.138Z,3.13
2019-02-07T21:20:55.784Z,3.03
2019-02-07T21:23:28.477Z,3.10
2019-02-07T21:26:01.142Z,3.27
2019-02-07T21:28:33.761Z,3.03
2019-02-07T21:31:06.409Z,3.13
2019-02-07T21:33:39.045Z,3.67
2019-02-07T21:36:11.698Z,2.90
2019-02-07T21:38:44.346Z,2.83
2019-02-07T21:41:16.985Z,3.00
2019-02-07T21:43:49.630Z,2.80
2019-02-07T21:46:22.274Z,2.50
2019-02-07T21:48:54.906Z,2.20
2019-02-07T21:51:27.624Z,2.30
2019-02-07T21:54:00.307Z,2.53
2019-02-07T21:56:32.961Z,2.30
2019-02-07T21:59:05.602Z,2.30
2019-02-07T22:01:38.250Z,2.03
2019-02-07T22:04:10.881Z,2.60
2019-02-07T22:06:43.549Z,2.50
2019-02-07T22:09:16.214Z,2.13
2019-02-07T22:11:48.893Z,2.37
2019-02-07T22:14:21.797Z,2.27
2019-02-07T22:16:54.444Z,2.10
2019-02-07T22:19:27.137Z,2.70
2019-02-07T22:21:59.899Z,2.37
2019-02-07T22:24:32.632Z,2.20
2019-02-07T22:27:05.662Z,2.47
2019-02-07T22:29:38.309Z,2.30
2019-02-07T22:32:10.982Z,2.20
2019-02-07T22:34:43.613Z,2.53
2019-02-07T22:37:16.279Z,2.80
2019-02-07T22:39:48.897Z,2.30
2019-02-07T22:42:21.541Z,2.70
2019-02-07T22:44:54.213Z,2.77
2019-02-07T22:47:26.842Z,2.43
2019-02-07T22:49:59.470Z,2.43
2019-02-07T22:52:32.098Z,2.40
2019-02-07T22:55:05.149Z,3.30
2019-02-07T22:57:37.791Z,2.40
2019-02-07T23:01:06.461Z,3.00
2019-02-07T23:03:58.781Z,2.20
2019-02-07T23:06:31.406Z,1.97
2019-02-07T23:09:07.317Z,2.17
2019-02-07T23:11:39.945Z,1.90
2019-02-07T23:14:12.953Z,2.30
2019-02-07T23:16:45.586Z,2.10
2019-02-07T23:19:18.253Z,2.27
2019-02-07T23:21:50.886Z,2.00
2019-02-07T23:24:23.522Z,2.27
2019-02-07T23:26:56.317Z,2.37
2019-02-07T23:29:28.958Z,2.37
2019-02-07T23:32:01.591Z,2.57
2019-02-07T23:34:34.258Z,2.67
2019-02-07T23:37:06.885Z,2.60
2019-02-07T23:39:39.524Z,2.27
2019-02-07T23:42:12.176Z,2.30
2019-02-07T23:44:44.805Z,2.33
2019-02-07T23:47:17.418Z,2.37
2019-02-07T23:49:50.139Z,2.00
2019-02-07T23:52:22.809Z,2.10
2019-02-07T23:54:55.438Z,2.37
2019-02-07T23:57:28.072Z,2.77
